sensor_id;sensor_type;location;lat;lon;timestamp;temperature;humidity
22436;DHT22;11385;50.822;4.324;2023-03-15T00:00:22;4.90;99.90
22436;DHT22;11385;50.822;4.324;2023-03-15T00:03:04;4.90;99.90
22436;DHT22;11385;50.822;4.324;2023-03-15T00:05:46;4.80;99.90
22436;DHT22;11385;50.822;4.324;2023-03-15T00:08:30;4.80;99.90
22436;DHT22;11385;50.822;4.324;2023-03-15T00:14:30;4.70;99.90
22436;DHT22;11385;50.822;4.324;2023-03-15T00:20:07;4.70;99.90
22436;DHT22;11385;50.822;4.324;2023-03-15T00:22:51;4.60;99.90
22436;DHT22;11385;50.822;4.324;2023-03-15T00:31:49;4.80;99.90
22436;DHT22;11385;50.822;4.324;2023-03-15T00:44:04;4.90;99.90
22436;DHT22;11385;50.822;4.324;2023-03-15T00:53:15;4.80;99.90
22436;DHT22;11385;50.822;4.324;2023-03-15T00:55:52;4.60;99.90
22436;DHT22;11385;50.822;4.324;2023-03-15T00:58:30;4.40;99.90
22436;DHT22;11385;50.822;4.324;2023-03-15T01:04:29;4.10;99.90
22436;DHT22;11385;50.822;4.324;2023-03-15T01:07:18;4.00;99.90
22436;DHT22;11385;50.822;4.324;2023-03-15T01:09:59;3.90;99.90
22436;DHT22;11385;50.822;4.324;2023-03-15T01:21:58;3.20;99.90
22436;DHT22;11385;50.822;4.324;2023-03-15T01:24:24;3.20;99.90
22436;DHT22;11385;50.822;4.324;2023-03-15T01:27:13;3.20;99.90
22436;DHT22;11385;50.822;4.324;2023-03-15T01:29:54;3.30;99.90
22436;DHT22;11385;50.822;4.324;2023-03-15T01:32:35;3.30;99.90
22436;DHT22;11385;50.822;4.324;2023-03-15T01:35:18;3.40;99.90
22436;DHT22;11385;50.822;4.324;2023-03-15T01:40:43;3.70;99.90
22436;DHT22;11385;50.822;4.324;2023-03-15T01:50:02;3.90;99.90
22436;DHT22;11385;50.822;4.324;2023-03-15T01:55:43;4.10;99.90
22436;DHT22;11385;50.822;4.324;2023-03-15T02:04:30;4.30;99.90
22436;DHT22;11385;50.822;4.324;2023-03-15T02:07:10;4.40;99.90
22436;DHT22;11385;50.822;4.324;2023-03-15T02:13:10;4.30;99.90
22436;DHT22;11385;50.822;4.324;2023-03-15T02:15:46;4.30;99.90
22436;DHT22;11385;50.822;4.324;2023-03-15T02:18:22;4.40;99.90
22436;DHT22;11385;50.822;4.324;2023-03-15T02:24:05;4.60;99.90
22436;DHT22;11385;50.822;4.324;2023-03-15T02:26:47;4.50;99.90
22436;DHT22;11385;50.822;4.324;2023-03-15T02:29:26;4.60;99.90
22436;DHT22;11385;50.822;4.324;2023-03-15T02:32:06;4.60;99.90
22436;DHT22;11385;50.822;4.324;2023-03-15T02:37:49;4.70;99.90
22436;DHT22;11385;50.822;4.324;2023-03-15T02:40:29;4.60;99.90
22436;DHT22;11385;50.822;4.324;2023-03-15T02:43:15;4.60;99.90
22436;DHT22;11385;50.822;4.324;2023-03-15T02:45:55;4.70;99.90
22436;DHT22;11385;50.822;4.324;2023-03-15T02:48:37;4.70;99.90
22436;DHT22;11385;50.822;4.324;2023-03-15T02:51:27;4.60;99.90
22436;DHT22;11385;50.822;4.324;2023-03-15T02:54:10;4.70;99.90
22436;DHT22;11385;50.822;4.324;2023-03-15T02:59:46;4.70;99.90
22436;DHT22;11385;50.822;4.324;2023-03-15T03:05:45;4.60;99.90
22436;DHT22;11385;50.822;4.324;2023-03-15T03:11:29;4.60;99.90
22436;DHT22;11385;50.822;4.324;2023-03-15T03:17:27;4.40;99.90
22436;DHT22;11385;50.822;4.324;2023-03-15T03:23:12;4.50;99.90
22436;DHT22;11385;50.822;4.324;2023-03-15T03:25:47;4.50;99.90
22436;DHT22;11385;50.822;4.324;2023-03-15T03:28:37;4.50;99.90
22436;DHT22;11385;50.822;4.324;2023-03-15T03:31:26;4.60;99.90
22436;DHT22;11385;50.822;4.324;2023-03-15T03:34:06;4.60;99.90
22436;DHT22;11385;50.822;4.324;2023-03-15T03:36:45;4.40;99.90
22436;DHT22;11385;50.822;4.324;2023-03-15T03:39:31;4.50;99.90
22436;DHT22;11385;50.822;4.324;2023-03-15T03:42:12;4.50;99.90
22436;DHT22;11385;50.822;4.324;2023-03-15T03:57:11;4.60;99.90
22436;DHT22;11385;50.822;4.324;2023-03-15T03:59:49;4.50;99.90
22436;DHT22;11385;50.822;4.324;2023-03-15T04:02:32;4.60;99.90
22436;DHT22;11385;50.822;4.324;2023-03-15T04:05:16;4.60;99.90
22436;DHT22;11385;50.822;4.324;2023-03-15T04:20:53;4.70;99.90
22436;DHT22;11385;50.822;4.324;2023-03-15T04:23:34;4.80;99.90
22436;DHT22;11385;50.822;4.324;2023-03-15T04:26:16;4.70;99.90
22436;DHT22;11385;50.822;4.324;2023-03-15T04:32:14;4.80;99.90
22436;DHT22;11385;50.822;4.324;2023-03-15T04:35:08;4.70;99.90
22436;DHT22;11385;50.822;4.324;2023-03-15T04:41:18;4.80;99.90
22436;DHT22;11385;50.822;4.324;2023-03-15T04:50:20;4.90;99.90
22436;DHT22;11385;50.822;4.324;2023-03-15T04:53:10;5.00;99.90
22436;DHT22;11385;50.822;4.324;2023-03-15T04:55:54;5.00;99.90
22436;DHT22;11385;50.822;4.324;2023-03-15T04:58:45;5.00;99.90
22436;DHT22;11385;50.822;4.324;2023-03-15T05:07:21;4.80;99.90
22436;DHT22;11385;50.822;4.324;2023-03-15T05:12:47;4.40;99.90
22436;DHT22;11385;50.822;4.324;2023-03-15T05:31:29;4.30;99.90
22436;DHT22;11385;50.822;4.324;2023-03-15T05:43:53;4.10;99.90
22436;DHT22;11385;50.822;4.324;2023-03-15T05:46:41;4.10;99.90
22436;DHT22;11385;50.822;4.324;2023-03-15T05:49:23;4.10;99.90
22436;DHT22;11385;50.822;4.324;2023-03-15T06:04:41;4.00;99.90
22436;DHT22;11385;50.822;4.324;2023-03-15T06:10:27;3.90;99.90
22436;DHT22;11385;50.822;4.324;2023-03-15T06:13:06;4.00;99.90
22436;DHT22;11385;50.822;4.324;2023-03-15T06:15:47;4.00;99.90
22436;DHT22;11385;50.822;4.324;2023-03-15T06:27:25;4.20;99.90
22436;DHT22;11385;50.822;4.324;2023-03-15T06:30:17;4.20;99.90
22436;DHT22;11385;50.822;4.324;2023-03-15T06:33:08;4.30;99.90
22436;DHT22;11385;50.822;4.324;2023-03-15T06:35:45;4.30;99.90
22436;DHT22;11385;50.822;4.324;2023-03-15T06:41:51;4.30;99.90
22436;DHT22;11385;50.822;4.324;2023-03-15T06:44:34;4.30;99.90
22436;DHT22;11385;50.822;4.324;2023-03-15T06:47:24;4.30;99.90
22436;DHT22;11385;50.822;4.324;2023-03-15T06:53:02;4.50;99.90
22436;DHT22;11385;50.822;4.324;2023-03-15T06:55:53;4.60;99.90
22436;DHT22;11385;50.822;4.324;2023-03-15T07:01:34;4.60;99.90
22436;DHT22;11385;50.822;4.324;2023-03-15T07:04:14;4.50;99.90
22436;DHT22;11385;50.822;4.324;2023-03-15T07:06:56;4.60;99.90
22436;DHT22;11385;50.822;4.324;2023-03-15T07:09:40;4.50;99.90
22436;DHT22;11385;50.822;4.324;2023-03-15T07:12:24;4.60;99.90
22436;DHT22;11385;50.822;4.324;2023-03-15T07:17:56;4.50;99.90
22436;DHT22;11385;50.822;4.324;2023-03-15T07:20:35;4.60;99.90
22436;DHT22;11385;50.822;4.324;2023-03-15T07:23:16;4.60;99.90
22436;DHT22;11385;50.822;4.324;2023-03-15T07:25:53;4.70;99.90
22436;DHT22;11385;50.822;4.324;2023-03-15T07:28:42;4.70;99.90
22436;DHT22;11385;50.822;4.324;2023-03-15T07:31:23;4.60;99.90
22436;DHT22;11385;50.822;4.324;2023-03-15T07:34:00;4.80;99.90
22436;DHT22;11385;50.822;4.324;2023-03-15T07:36:42;4.90;99.90
22436;DHT22;11385;50.822;4.324;2023-03-15T07:45:13;4.60;99.90
22436;DHT22;11385;50.822;4.324;2023-03-15T07:47:57;4.60;99.90
22436;DHT22;11385;50.822;4.324;2023-03-15T07:50:40;4.70;99.90
22436;DHT22;11385;50.822;4.324;2023-03-15T07:53:16;4.80;99.90
22436;DHT22;11385;50.822;4.324;2023-03-15T07:55:57;4.90;99.90
22436;DHT22;11385;50.822;4.324;2023-03-15T07:58:33;5.00;99.90
22436;DHT22;11385;50.822;4.324;2023-03-15T08:01:16;5.20;99.90
22436;DHT22;11385;50.822;4.324;2023-03-15T08:03:52;5.40;99.90
22436;DHT22;11385;50.822;4.324;2023-03-15T08:06:29;5.50;99.90
22436;DHT22;11385;50.822;4.324;2023-03-15T08:09:21;5.60;99.90
22436;DHT22;11385;50.822;4.324;2023-03-15T08:12:02;5.80;99.90
22436;DHT22;11385;50.822;4.324;2023-03-15T08:17:47;6.30;99.90
22436;DHT22;11385;50.822;4.324;2023-03-15T08:20:28;6.40;99.90
22436;DHT22;11385;50.822;4.324;2023-03-15T08:23:08;6.50;99.90
22436;DHT22;11385;50.822;4.324;2023-03-15T08:25:44;6.40;99.90
22436;DHT22;11385;50.822;4.324;2023-03-15T08:28:26;6.40;99.90
22436;DHT22;11385;50.822;4.324;2023-03-15T08:31:06;6.40;99.90
22436;DHT22;11385;50.822;4.324;2023-03-15T08:33:49;6.40;99.90
22436;DHT22;11385;50.822;4.324;2023-03-15T08:36:25;6.30;99.90
22436;DHT22;11385;50.822;4.324;2023-03-15T08:39:07;6.30;99.90
22436;DHT22;11385;50.822;4.324;2023-03-15T08:41:50;6.30;99.90
22436;DHT22;11385;50.822;4.324;2023-03-15T08:44:27;6.00;99.90
22436;DHT22;11385;50.822;4.324;2023-03-15T08:47:08;6.00;99.90
22436;DHT22;11385;50.822;4.324;2023-03-15T08:49:47;6.20;99.90
22436;DHT22;11385;50.822;4.324;2023-03-15T08:52:28;6.30;99.90
22436;DHT22;11385;50.822;4.324;2023-03-15T08:55:09;6.40;99.90
22436;DHT22;11385;50.822;4.324;2023-03-15T08:57:49;6.40;99.90
22436;DHT22;11385;50.822;4.324;2023-03-15T09:00:27;6.60;99.90
22436;DHT22;11385;50.822;4.324;2023-03-15T09:06:09;7.20;99.90
22436;DHT22;11385;50.822;4.324;2023-03-15T09:08:50;7.30;99.90
22436;DHT22;11385;50.822;4.324;2023-03-15T09:11:32;7.40;99.90
22436;DHT22;11385;50.822;4.324;2023-03-15T09:14:13;7.60;99.90
22436;DHT22;11385;50.822;4.324;2023-03-15T09:16:51;7.60;99.90
22436;DHT22;11385;50.822;4.324;2023-03-15T09:19:31;7.70;99.90
22436;DHT22;11385;50.822;4.324;2023-03-15T09:22:09;7.80;99.90
22436;DHT22;11385;50.822;4.324;2023-03-15T09:24:47;7.90;99.90
22436;DHT22;11385;50.822;4.324;2023-03-15T09:42:52;7.40;99.90
22436;DHT22;11385;50.822;4.324;2023-03-15T09:45:57;7.40;99.90
22436;DHT22;11385;50.822;4.324;2023-03-15T09:48:38;7.40;99.90
22436;DHT22;11385;50.822;4.324;2023-03-15T09:58:10;7.80;99.90
22436;DHT22;11385;50.822;4.324;2023-03-15T10:04:07;7.90;99.90
22436;DHT22;11385;50.822;4.324;2023-03-15T10:06:46;7.60;99.90
22436;DHT22;11385;50.822;4.324;2023-03-15T10:09:30;7.90;99.90
22436;DHT22;11385;50.822;4.324;2023-03-15T10:12:15;8.00;99.90
22436;DHT22;11385;50.822;4.324;2023-03-15T10:15:07;8.30;99.90
22436;DHT22;11385;50.822;4.324;2023-03-15T10:17:40;8.50;99.90
22436;DHT22;11385;50.822;4.324;2023-03-15T10:20:25;8.70;99.90
22436;DHT22;11385;50.822;4.324;2023-03-15T10:22:59;8.90;99.90
22436;DHT22;11385;50.822;4.324;2023-03-15T10:25:28;8.90;99.90
22436;DHT22;11385;50.822;4.324;2023-03-15T10:28:04;9.10;99.90
22436;DHT22;11385;50.822;4.324;2023-03-15T10:30:46;9.50;99.90
22436;DHT22;11385;50.822;4.324;2023-03-15T10:42:46;9.50;99.90
22436;DHT22;11385;50.822;4.324;2023-03-15T10:45:20;9.60;99.90
22436;DHT22;11385;50.822;4.324;2023-03-15T10:47:47;9.40;99.90
22436;DHT22;11385;50.822;4.324;2023-03-15T10:50:25;9.30;99.90
22436;DHT22;11385;50.822;4.324;2023-03-15T10:52:55;9.00;99.90
22436;DHT22;11385;50.822;4.324;2023-03-15T10:55:41;9.00;99.90
22436;DHT22;11385;50.822;4.324;2023-03-15T10:58:27;9.30;99.90
22436;DHT22;11385;50.822;4.324;2023-03-15T11:01:03;9.90;99.90
22436;DHT22;11385;50.822;4.324;2023-03-15T11:03:33;9.60;99.90
22436;DHT22;11385;50.822;4.324;2023-03-15T11:06:01;9.80;99.90
22436;DHT22;11385;50.822;4.324;2023-03-15T11:08:35;9.70;99.90
22436;DHT22;11385;50.822;4.324;2023-03-15T11:11:04;9.60;99.90
22436;DHT22;11385;50.822;4.324;2023-03-15T11:13:33;9.80;99.90
22436;DHT22;11385;50.822;4.324;2023-03-15T11:16:19;9.70;99.90
22436;DHT22;11385;50.822;4.324;2023-03-15T11:19:02;9.60;99.90
22436;DHT22;11385;50.822;4.324;2023-03-15T11:21:32;9.70;99.90
22436;DHT22;11385;50.822;4.324;2023-03-15T11:24:01;10.30;99.90
22436;DHT22;11385;50.822;4.324;2023-03-15T11:26:32;10.50;99.90
22436;DHT22;11385;50.822;4.324;2023-03-15T11:29:20;10.00;99.90
22436;DHT22;11385;50.822;4.324;2023-03-15T11:31:59;10.10;99.90
22436;DHT22;11385;50.822;4.324;2023-03-15T11:34:49;9.90;99.90
22436;DHT22;11385;50.822;4.324;2023-03-15T11:37:25;9.80;99.90
22436;DHT22;11385;50.822;4.324;2023-03-15T11:39:59;9.70;99.90
22436;DHT22;11385;50.822;4.324;2023-03-15T11:42:32;9.60;99.90
22436;DHT22;11385;50.822;4.324;2023-03-15T11:45:04;9.70;99.90
22436;DHT22;11385;50.822;4.324;2023-03-15T11:47:50;9.70;99.90
22436;DHT22;11385;50.822;4.324;2023-03-15T11:50:28;9.80;99.90
22436;DHT22;11385;50.822;4.324;2023-03-15T11:52:56;9.60;99.90
22436;DHT22;11385;50.822;4.324;2023-03-15T11:55:27;9.50;99.90
22436;DHT22;11385;50.822;4.324;2023-03-15T11:57:55;9.40;99.90
22436;DHT22;11385;50.822;4.324;2023-03-15T12:00:49;9.50;99.90
22436;DHT22;11385;50.822;4.324;2023-03-15T12:06:35;9.50;99.90
22436;DHT22;11385;50.822;4.324;2023-03-15T12:12:33;9.50;99.90
22436;DHT22;11385;50.822;4.324;2023-03-15T12:14:36;9.60;99.90
22436;DHT22;11385;50.822;4.324;2023-03-15T12:19:41;9.40;99.90
22436;DHT22;11385;50.822;4.324;2023-03-15T12:22:15;9.30;99.90
22436;DHT22;11385;50.822;4.324;2023-03-15T12:24:44;9.30;99.90
22436;DHT22;11385;50.822;4.324;2023-03-15T12:27:17;9.50;99.90
22436;DHT22;11385;50.822;4.324;2023-03-15T12:29:46;9.40;99.90
22436;DHT22;11385;50.822;4.324;2023-03-15T12:32:16;9.40;99.90
22436;DHT22;11385;50.822;4.324;2023-03-15T12:34:49;9.40;99.90
22436;DHT22;11385;50.822;4.324;2023-03-15T12:37:22;9.60;99.90
22436;DHT22;11385;50.822;4.324;2023-03-15T12:40:28;9.80;99.90
22436;DHT22;11385;50.822;4.324;2023-03-15T12:42:59;10.00;99.90
22436;DHT22;11385;50.822;4.324;2023-03-15T12:45:33;10.30;99.90
22436;DHT22;11385;50.822;4.324;2023-03-15T12:48:18;10.60;99.90
22436;DHT22;11385;50.822;4.324;2023-03-15T12:50:56;10.60;99.90
22436;DHT22;11385;50.822;4.324;2023-03-15T12:53:27;10.80;99.90
22436;DHT22;11385;50.822;4.324;2023-03-15T12:55:58;10.90;99.90
22436;DHT22;11385;50.822;4.324;2023-03-15T12:58:29;10.70;99.90
22436;DHT22;11385;50.822;4.324;2023-03-15T13:00:56;10.40;99.90
22436;DHT22;11385;50.822;4.324;2023-03-15T13:03:25;10.50;99.90
22436;DHT22;11385;50.822;4.324;2023-03-15T13:06:18;10.80;99.90
22436;DHT22;11385;50.822;4.324;2023-03-15T13:09:09;10.60;99.90
22436;DHT22;11385;50.822;4.324;2023-03-15T13:11:43;10.40;99.90
22436;DHT22;11385;50.822;4.324;2023-03-15T13:14:25;10.40;99.90
22436;DHT22;11385;50.822;4.324;2023-03-15T13:16:55;10.70;99.90
22436;DHT22;11385;50.822;4.324;2023-03-15T13:19:29;10.70;99.90
22436;DHT22;11385;50.822;4.324;2023-03-15T13:25:01;10.70;99.90
22436;DHT22;11385;50.822;4.324;2023-03-15T13:28:05;11.00;99.90
22436;DHT22;11385;50.822;4.324;2023-03-15T13:33:33;11.00;99.90
22436;DHT22;11385;50.822;4.324;2023-03-15T13:36:12;11.10;99.90
22436;DHT22;11385;50.822;4.324;2023-03-15T13:38:43;11.30;99.90
22436;DHT22;11385;50.822;4.324;2023-03-15T13:41:30;11.40;99.90
22436;DHT22;11385;50.822;4.324;2023-03-15T13:43:59;11.40;99.90
22436;DHT22;11385;50.822;4.324;2023-03-15T13:46:29;11.10;99.90
22436;DHT22;11385;50.822;4.324;2023-03-15T13:48:56;11.20;99.90
22436;DHT22;11385;50.822;4.324;2023-03-15T13:51:30;11.30;99.90
22436;DHT22;11385;50.822;4.324;2023-03-15T13:54:12;10.90;99.90
22436;DHT22;11385;50.822;4.324;2023-03-15T13:56:42;10.70;99.90
22436;DHT22;11385;50.822;4.324;2023-03-15T13:59:08;10.90;99.90
22436;DHT22;11385;50.822;4.324;2023-03-15T14:01:37;10.90;99.90
22436;DHT22;11385;50.822;4.324;2023-03-15T14:04:07;11.10;99.90
22436;DHT22;11385;50.822;4.324;2023-03-15T14:06:39;11.00;99.90
22436;DHT22;11385;50.822;4.324;2023-03-15T14:09:10;10.90;99.90
22436;DHT22;11385;50.822;4.324;2023-03-15T14:11:38;10.90;99.90
22436;DHT22;11385;50.822;4.324;2023-03-15T14:14:13;11.30;99.90
22436;DHT22;11385;50.822;4.324;2023-03-15T14:16:46;11.20;99.90
22436;DHT22;11385;50.822;4.324;2023-03-15T14:19:15;11.40;99.90
22436;DHT22;11385;50.822;4.324;2023-03-15T14:21:45;11.40;99.90
22436;DHT22;11385;50.822;4.324;2023-03-15T14:24:14;11.40;99.90
22436;DHT22;11385;50.822;4.324;2023-03-15T14:26:43;11.50;99.90
22436;DHT22;11385;50.822;4.324;2023-03-15T14:29:15;11.40;99.90
22436;DHT22;11385;50.822;4.324;2023-03-15T14:31:48;11.30;99.90
22436;DHT22;11385;50.822;4.324;2023-03-15T14:34:32;11.30;99.90
22436;DHT22;11385;50.822;4.324;2023-03-15T14:37:00;11.00;99.90
22436;DHT22;11385;50.822;4.324;2023-03-15T14:39:37;11.10;99.90
22436;DHT22;11385;50.822;4.324;2023-03-15T14:42:05;11.00;99.90
22436;DHT22;11385;50.822;4.324;2023-03-15T14:44:33;11.10;99.90
22436;DHT22;11385;50.822;4.324;2023-03-15T14:47:01;11.10;99.90
22436;DHT22;11385;50.822;4.324;2023-03-15T14:49:33;11.20;99.90
22436;DHT22;11385;50.822;4.324;2023-03-15T14:52:02;11.20;99.90
22436;DHT22;11385;50.822;4.324;2023-03-15T14:54:30;11.30;99.90
22436;DHT22;11385;50.822;4.324;2023-03-15T14:56:59;11.30;99.90
22436;DHT22;11385;50.822;4.324;2023-03-15T14:59:25;11.60;99.90
22436;DHT22;11385;50.822;4.324;2023-03-15T15:01:54;11.40;99.90
22436;DHT22;11385;50.822;4.324;2023-03-15T15:04:22;11.20;99.90
22436;DHT22;11385;50.822;4.324;2023-03-15T15:06:51;11.50;99.90
22436;DHT22;11385;50.822;4.324;2023-03-15T15:09:23;11.40;99.90
22436;DHT22;11385;50.822;4.324;2023-03-15T15:11:51;11.40;99.90
22436;DHT22;11385;50.822;4.324;2023-03-15T15:14:19;11.40;99.90
22436;DHT22;11385;50.822;4.324;2023-03-15T15:16:47;11.40;99.90
22436;DHT22;11385;50.822;4.324;2023-03-15T15:19:15;11.50;99.90
22436;DHT22;11385;50.822;4.324;2023-03-15T15:21:44;11.90;99.90
22436;DHT22;11385;50.822;4.324;2023-03-15T15:24:15;11.80;99.90
22436;DHT22;11385;50.822;4.324;2023-03-15T15:26:44;12.00;99.90
22436;DHT22;11385;50.822;4.324;2023-03-15T15:29:13;12.00;99.90
22436;DHT22;11385;50.822;4.324;2023-03-15T15:31:40;11.70;99.90
22436;DHT22;11385;50.822;4.324;2023-03-15T15:34:09;11.40;99.90
22436;DHT22;11385;50.822;4.324;2023-03-15T15:36:39;11.10;99.90
22436;DHT22;11385;50.822;4.324;2023-03-15T15:39:17;11.00;99.90
22436;DHT22;11385;50.822;4.324;2023-03-15T15:41:43;10.70;99.90
22436;DHT22;11385;50.822;4.324;2023-03-15T15:44:14;10.90;99.90
22436;DHT22;11385;50.822;4.324;2023-03-15T15:46:41;11.10;99.90
22436;DHT22;11385;50.822;4.324;2023-03-15T15:49:08;11.40;99.90
22436;DHT22;11385;50.822;4.324;2023-03-15T15:51:38;11.30;99.90
22436;DHT22;11385;50.822;4.324;2023-03-15T15:54:11;11.20;99.90
22436;DHT22;11385;50.822;4.324;2023-03-15T15:56:38;11.20;99.90
22436;DHT22;11385;50.822;4.324;2023-03-15T15:59:12;11.40;99.90
22436;DHT22;11385;50.822;4.324;2023-03-15T16:01:40;11.50;99.90
22436;DHT22;11385;50.822;4.324;2023-03-15T16:04:08;11.60;99.90
22436;DHT22;11385;50.822;4.324;2023-03-15T16:06:35;11.80;99.90
22436;DHT22;11385;50.822;4.324;2023-03-15T16:09:03;11.90;99.90
22436;DHT22;11385;50.822;4.324;2023-03-15T16:11:31;12.00;99.90
22436;DHT22;11385;50.822;4.324;2023-03-15T16:13:59;11.60;99.90
22436;DHT22;11385;50.822;4.324;2023-03-15T16:16:26;11.40;99.90
22436;DHT22;11385;50.822;4.324;2023-03-15T16:18:52;11.50;99.90
22436;DHT22;11385;50.822;4.324;2023-03-15T16:21:28;11.40;99.90
22436;DHT22;11385;50.822;4.324;2023-03-15T16:24:05;11.20;99.90
22436;DHT22;11385;50.822;4.324;2023-03-15T16:26:32;11.40;99.90
22436;DHT22;11385;50.822;4.324;2023-03-15T16:29:00;11.40;99.90
22436;DHT22;11385;50.822;4.324;2023-03-15T16:31:27;11.50;99.90
22436;DHT22;11385;50.822;4.324;2023-03-15T16:33:53;11.40;99.90
22436;DHT22;11385;50.822;4.324;2023-03-15T16:36:21;11.20;99.90
22436;DHT22;11385;50.822;4.324;2023-03-15T16:38:48;11.20;99.90
22436;DHT22;11385;50.822;4.324;2023-03-15T16:41:16;10.90;99.90
22436;DHT22;11385;50.822;4.324;2023-03-15T16:43:43;10.80;99.90
22436;DHT22;11385;50.822;4.324;2023-03-15T16:46:13;10.80;99.90
22436;DHT22;11385;50.822;4.324;2023-03-15T16:48:40;11.10;99.90
22436;DHT22;11385;50.822;4.324;2023-03-15T16:51:08;10.90;99.90
22436;DHT22;11385;50.822;4.324;2023-03-15T16:53:38;10.90;99.90
22436;DHT22;11385;50.822;4.324;2023-03-15T16:56:05;10.70;99.90
22436;DHT22;11385;50.822;4.324;2023-03-15T16:58:32;10.70;99.90
22436;DHT22;11385;50.822;4.324;2023-03-15T17:00:58;10.90;99.90
22436;DHT22;11385;50.822;4.324;2023-03-15T17:03:26;10.60;99.90
22436;DHT22;11385;50.822;4.324;2023-03-15T17:05:55;10.50;99.90
22436;DHT22;11385;50.822;4.324;2023-03-15T17:08:22;10.50;99.90
22436;DHT22;11385;50.822;4.324;2023-03-15T17:10:50;10.30;99.90
22436;DHT22;11385;50.822;4.324;2023-03-15T17:13:22;10.30;99.90
22436;DHT22;11385;50.822;4.324;2023-03-15T17:15:48;10.40;99.90
22436;DHT22;11385;50.822;4.324;2023-03-15T17:18:17;10.50;99.90
22436;DHT22;11385;50.822;4.324;2023-03-15T17:20:46;10.40;99.90
22436;DHT22;11385;50.822;4.324;2023-03-15T17:23:15;10.20;99.90
22436;DHT22;11385;50.822;4.324;2023-03-15T17:25:42;10.20;99.90
22436;DHT22;11385;50.822;4.324;2023-03-15T17:28:09;10.40;99.90
22436;DHT22;11385;50.822;4.324;2023-03-15T17:30:36;10.40;99.90
22436;DHT22;11385;50.822;4.324;2023-03-15T17:33:04;10.30;99.90
22436;DHT22;11385;50.822;4.324;2023-03-15T17:35:34;10.30;99.90
22436;DHT22;11385;50.822;4.324;2023-03-15T17:38:03;10.40;99.90
22436;DHT22;11385;50.822;4.324;2023-03-15T17:40:33;10.20;99.90
22436;DHT22;11385;50.822;4.324;2023-03-15T17:43:02;10.30;99.90
22436;DHT22;11385;50.822;4.324;2023-03-15T17:45:32;10.00;99.90
22436;DHT22;11385;50.822;4.324;2023-03-15T17:48:00;9.90;99.90
22436;DHT22;11385;50.822;4.324;2023-03-15T17:50:29;9.90;99.90
22436;DHT22;11385;50.822;4.324;2023-03-15T17:53:01;9.90;99.90
22436;DHT22;11385;50.822;4.324;2023-03-15T17:55:30;9.90;99.90
22436;DHT22;11385;50.822;4.324;2023-03-15T17:58:00;9.80;99.90
22436;DHT22;11385;50.822;4.324;2023-03-15T18:00:27;9.70;99.90
22436;DHT22;11385;50.822;4.324;2023-03-15T18:03:00;9.60;99.90
22436;DHT22;11385;50.822;4.324;2023-03-15T18:05:28;9.50;99.90
22436;DHT22;11385;50.822;4.324;2023-03-15T18:07:56;9.50;99.90
22436;DHT22;11385;50.822;4.324;2023-03-15T18:10:23;9.70;99.90
22436;DHT22;11385;50.822;4.324;2023-03-15T18:12:52;9.80;99.90
22436;DHT22;11385;50.822;4.324;2023-03-15T18:15:21;9.90;99.90
22436;DHT22;11385;50.822;4.324;2023-03-15T18:17:49;9.70;99.90
22436;DHT22;11385;50.822;4.324;2023-03-15T18:20:16;9.70;99.90
22436;DHT22;11385;50.822;4.324;2023-03-15T18:22:44;9.70;99.90
22436;DHT22;11385;50.822;4.324;2023-03-15T18:25:19;9.80;99.90
22436;DHT22;11385;50.822;4.324;2023-03-15T18:27:47;9.90;99.90
22436;DHT22;11385;50.822;4.324;2023-03-15T18:30:16;9.90;99.90
22436;DHT22;11385;50.822;4.324;2023-03-15T18:32:45;9.80;99.90
22436;DHT22;11385;50.822;4.324;2023-03-15T18:35:16;9.80;99.90
22436;DHT22;11385;50.822;4.324;2023-03-15T18:37:44;9.50;99.90
22436;DHT22;11385;50.822;4.324;2023-03-15T18:40:14;9.40;99.90
22436;DHT22;11385;50.822;4.324;2023-03-15T18:42:42;9.30;99.90
22436;DHT22;11385;50.822;4.324;2023-03-15T18:45:15;9.30;99.90
22436;DHT22;11385;50.822;4.324;2023-03-15T18:47:40;9.50;99.90
22436;DHT22;11385;50.822;4.324;2023-03-15T18:50:08;9.50;99.90
22436;DHT22;11385;50.822;4.324;2023-03-15T18:52:35;9.60;99.90
22436;DHT22;11385;50.822;4.324;2023-03-15T18:55:03;9.50;99.90
22436;DHT22;11385;50.822;4.324;2023-03-15T18:57:33;9.60;99.90
22436;DHT22;11385;50.822;4.324;2023-03-15T19:00:03;9.60;99.90
22436;DHT22;11385;50.822;4.324;2023-03-15T19:02:46;9.50;99.90
22436;DHT22;11385;50.822;4.324;2023-03-15T19:05:15;9.60;99.90
22436;DHT22;11385;50.822;4.324;2023-03-15T19:07:42;9.70;99.90
22436;DHT22;11385;50.822;4.324;2023-03-15T19:10:12;9.60;99.90
22436;DHT22;11385;50.822;4.324;2023-03-15T19:12:41;9.60;99.90
22436;DHT22;11385;50.822;4.324;2023-03-15T19:15:12;9.50;99.90
22436;DHT22;11385;50.822;4.324;2023-03-15T19:17:43;9.50;99.90
22436;DHT22;11385;50.822;4.324;2023-03-15T19:20:14;9.40;99.90
22436;DHT22;11385;50.822;4.324;2023-03-15T19:22:41;9.40;99.90
22436;DHT22;11385;50.822;4.324;2023-03-15T19:25:11;9.40;99.90
22436;DHT22;11385;50.822;4.324;2023-03-15T19:27:41;9.50;99.90
22436;DHT22;11385;50.822;4.324;2023-03-15T19:30:12;9.40;99.90
22436;DHT22;11385;50.822;4.324;2023-03-15T19:32:43;9.30;99.90
22436;DHT22;11385;50.822;4.324;2023-03-15T19:35:21;9.20;99.90
22436;DHT22;11385;50.822;4.324;2023-03-15T19:37:51;9.30;99.90
22436;DHT22;11385;50.822;4.324;2023-03-15T19:40:19;9.30;99.90
22436;DHT22;11385;50.822;4.324;2023-03-15T19:42:46;9.10;99.90
22436;DHT22;11385;50.822;4.324;2023-03-15T19:45:17;9.00;99.90
22436;DHT22;11385;50.822;4.324;2023-03-15T19:47:46;8.90;99.90
22436;DHT22;11385;50.822;4.324;2023-03-15T19:50:13;9.00;99.90
22436;DHT22;11385;50.822;4.324;2023-03-15T19:52:41;9.00;99.90
22436;DHT22;11385;50.822;4.324;2023-03-15T19:55:12;9.10;99.90
22436;DHT22;11385;50.822;4.324;2023-03-15T19:57:43;9.10;99.90
22436;DHT22;11385;50.822;4.324;2023-03-15T20:00:12;9.00;99.90
22436;DHT22;11385;50.822;4.324;2023-03-15T20:02:42;8.80;99.90
22436;DHT22;11385;50.822;4.324;2023-03-15T20:05:13;8.60;99.90
22436;DHT22;11385;50.822;4.324;2023-03-15T20:07:41;8.70;99.90
22436;DHT22;11385;50.822;4.324;2023-03-15T20:10:09;8.50;99.90
22436;DHT22;11385;50.822;4.324;2023-03-15T20:12:37;8.50;99.90
22436;DHT22;11385;50.822;4.324;2023-03-15T20:15:12;8.50;99.90
22436;DHT22;11385;50.822;4.324;2023-03-15T20:17:41;8.50;99.90
22436;DHT22;11385;50.822;4.324;2023-03-15T20:20:10;8.50;99.90
22436;DHT22;11385;50.822;4.324;2023-03-15T20:22:42;8.50;99.90
22436;DHT22;11385;50.822;4.324;2023-03-15T20:25:11;8.40;99.90
22436;DHT22;11385;50.822;4.324;2023-03-15T20:27:39;8.40;99.90
22436;DHT22;11385;50.822;4.324;2023-03-15T20:30:13;8.40;99.90
22436;DHT22;11385;50.822;4.324;2023-03-15T20:32:40;8.30;99.90
22436;DHT22;11385;50.822;4.324;2023-03-15T20:35:08;8.30;99.90
22436;DHT22;11385;50.822;4.324;2023-03-15T20:37:39;8.40;99.90
22436;DHT22;11385;50.822;4.324;2023-03-15T20:40:11;8.40;99.90
22436;DHT22;11385;50.822;4.324;2023-03-15T20:42:40;8.40;99.90
22436;DHT22;11385;50.822;4.324;2023-03-15T20:45:08;8.30;99.90